Time;durP1;ratioP1;P1;durP2;ratioP2;P2;SDS_P1;SDS_P2;PMS_P1;PMS_P2;Temp;Humidity;BMP_temperature;BMP_pressure;BME280_temperature;BME280_humidity;BME280_pressure;Samples;Min_cycle;Max_cycle;Signal;HPM_P1;HPM_P2
2021/12/27 00:00:46;;;;;;;1.87;1.00;;;-4.30;99.90;;;;;;5044680;28;20209;-91
2021/12/27 00:03:17;;;;;;;1.43;1.20;;;-4.30;99.90;;;;;;5046496;28;20243;-91
2021/12/27 00:05:49;;;;;;;3.80;0.97;;;-4.30;99.90;;;;;;5049247;28;20659;-89
2021/12/27 00:08:32;;;;;;;5.57;1.13;;;-4.40;99.90;;;;;;5044547;28;20676;-92
2021/12/27 00:11:06;;;;;;;1.37;1.00;;;-4.40;99.90;;;;;;5046405;28;20228;-89
2021/12/27 00:13:38;;;;;;;1.13;0.70;;;-4.50;99.90;;;;;;5029271;28;20234;-90
2021/12/27 00:16:13;;;;;;;1.90;0.87;;;-4.60;99.90;;;;;;5029313;28;20200;-91
2021/12/27 00:18:44;;;;;;;5.43;0.90;;;-4.60;99.90;;;;;;5044455;28;20214;-90
2021/12/27 00:21:15;;;;;;;1.83;0.80;;;-4.60;99.90;;;;;;5044247;28;20212;-90
2021/12/27 00:23:46;;;;;;;1.40;0.90;;;-4.60;99.90;;;;;;5044412;28;20197;-91
2021/12/27 00:26:18;;;;;;;2.70;1.00;;;-4.60;99.90;;;;;;5041377;28;20266;-89
2021/12/27 00:28:51;;;;;;;2.60;0.97;;;-4.60;99.90;;;;;;5047796;28;20204;-90
2021/12/27 00:31:24;;;;;;;4.57;1.00;;;-4.70;99.90;;;;;;5052921;28;20228;-89
2021/12/27 00:33:56;;;;;;;1.23;0.90;;;-4.70;99.90;;;;;;5054727;28;20212;-91
2021/12/27 00:36:29;;;;;;;2.13;1.10;;;-4.70;99.90;;;;;;5046362;28;20733;-91
2021/12/27 00:39:01;;;;;;;3.40;0.87;;;-4.80;99.90;;;;;;5041521;28;20605;-90
2021/12/27 00:41:33;;;;;;;3.67;0.93;;;-4.80;99.90;;;;;;5042269;28;20201;-90
2021/12/27 00:44:05;;;;;;;5.27;1.20;;;-4.80;99.90;;;;;;5042797;28;20215;-90
2021/12/27 00:46:39;;;;;;;4.10;1.40;;;-4.80;99.90;;;;;;5025765;28;20216;-91
2021/12/27 00:49:13;;;;;;;2.23;1.37;;;-4.70;99.90;;;;;;5040949;28;20237;-92
2021/12/27 00:51:44;;;;;;;2.83;1.50;;;-4.70;99.90;;;;;;5041202;28;20704;-91
2021/12/27 00:54:17;;;;;;;2.60;1.50;;;-4.70;99.90;;;;;;5039649;28;20212;-91
2021/12/27 00:56:48;;;;;;;0.93;0.93;;;-4.80;99.90;;;;;;5039301;28;20209;-92
2021/12/27 00:59:20;;;;;;;2.80;1.40;;;-4.70;99.90;;;;;;5039824;28;20248;-92
2021/12/27 01:01:54;;;;;;;2.00;1.20;;;-4.70;99.90;;;;;;5039421;28;20208;-92
2021/12/27 01:04:26;;;;;;;3.53;1.30;;;-4.70;99.90;;;;;;5040622;28;20207;-90
2021/12/27 01:06:58;;;;;;;6.23;1.50;;;-4.60;99.90;;;;;;5046224;28;20621;-89
2021/12/27 01:09:38;;;;;;;3.97;1.33;;;-4.70;99.90;;;;;;5043477;28;20263;-92
2021/12/27 01:12:27;;;;;;;2.83;1.50;;;-4.70;99.90;;;;;;5050860;28;20220;-92
2021/12/27 01:15:33;;;;;;;1.83;1.37;;;-4.80;99.90;;;;;;5035955;28;20208;-91
2021/12/27 01:18:08;;;;;;;3.83;1.53;;;-4.80;99.90;;;;;;5032594;28;20256;-91
2021/12/27 01:20:40;;;;;;;2.97;1.70;;;-4.80;99.90;;;;;;5026846;28;20205;-91
2021/12/27 01:23:13;;;;;;;5.90;2.20;;;-4.80;99.90;;;;;;5026475;28;20228;-90
2021/12/27 01:25:44;;;;;;;2.80;1.77;;;-4.80;99.90;;;;;;5025699;28;20232;-91
2021/12/27 01:28:16;;;;;;;3.63;1.40;;;-4.80;99.90;;;;;;5011177;28;20206;-91
2021/12/27 01:30:49;;;;;;;3.13;1.60;;;-4.80;99.90;;;;;;5029399;28;20229;-90
2021/12/27 01:33:24;;;;;;;3.67;1.47;;;-4.80;99.90;;;;;;5042961;28;20243;-90
2021/12/27 01:36:01;;;;;;;4.27;1.33;;;-4.80;99.90;;;;;;5042522;28;20221;-90
2021/12/27 01:38:35;;;;;;;2.87;1.57;;;-4.70;99.90;;;;;;5042264;28;20242;-91
2021/12/27 01:41:07;;;;;;;2.27;1.30;;;-4.70;99.90;;;;;;5045132;28;20201;-91
2021/12/27 01:43:45;;;;;;;2.63;1.40;;;-4.70;99.90;;;;;;5040227;28;20207;-92
2021/12/27 01:46:24;;;;;;;3.30;1.70;;;-4.70;99.90;;;;;;5038716;28;20279;-91
2021/12/27 01:49:00;;;;;;;4.77;1.40;;;-4.70;99.90;;;;;;5021871;28;20220;-92
2021/12/27 01:51:33;;;;;;;3.63;1.30;;;-4.70;99.90;;;;;;5039139;28;20243;-92
2021/12/27 01:54:04;;;;;;;3.30;2.00;;;-4.80;99.90;;;;;;5040104;28;20732;-91
2021/12/27 01:56:37;;;;;;;2.70;1.30;;;-4.80;99.90;;;;;;5038530;28;20239;-91
2021/12/27 01:59:08;;;;;;;3.63;1.57;;;-4.80;99.90;;;;;;5040875;28;20208;-90
2021/12/27 02:01:40;;;;;;;3.60;1.00;;;-4.80;99.90;;;;;;5041233;28;20205;-90
2021/12/27 02:04:14;;;;;;;1.93;1.10;;;-4.90;99.90;;;;;;5041646;28;20230;-91
2021/12/27 02:06:48;;;;;;;3.57;1.40;;;-4.90;99.90;;;;;;5040096;28;20580;-90
2021/12/27 02:09:30;;;;;;;3.33;1.47;;;-4.90;99.90;;;;;;5017639;28;20226;-91
2021/12/27 02:12:01;;;;;;;2.30;1.30;;;-5.00;99.90;;;;;;5004241;28;20257;-91
2021/12/27 02:14:33;;;;;;;4.60;1.73;;;-5.00;99.90;;;;;;5029180;28;20220;-89
2021/12/27 02:17:07;;;;;;;2.83;1.40;;;-5.00;99.90;;;;;;5028326;28;20216;-91
2021/12/27 02:19:44;;;;;;;1.63;1.10;;;-5.00;99.90;;;;;;5029921;28;20247;-90
2021/12/27 02:22:18;;;;;;;1.67;1.10;;;-5.00;99.90;;;;;;5029658;28;20209;-90
2021/12/27 02:24:49;;;;;;;1.57;1.10;;;-5.00;99.90;;;;;;5030920;28;20248;-90
2021/12/27 02:27:23;;;;;;;2.53;1.10;;;-5.10;99.90;;;;;;5029905;28;20221;-90
2021/12/27 02:29:54;;;;;;;1.93;1.30;;;-5.10;99.90;;;;;;5030665;28;20196;-91
2021/12/27 02:32:25;;;;;;;2.37;1.10;;;-5.20;99.90;;;;;;5031294;28;20224;-90
2021/12/27 02:34:56;;;;;;;3.30;1.50;;;-5.10;99.90;;;;;;5034163;28;20231;-89
2021/12/27 02:37:30;;;;;;;2.63;1.00;;;-5.10;99.90;;;;;;5051626;28;20192;-90
2021/12/27 02:40:03;;;;;;;2.50;1.63;;;-5.20;99.90;;;;;;5049555;28;20250;-91
2021/12/27 02:42:34;;;;;;;6.20;1.63;;;-5.20;99.90;;;;;;5042522;28;20216;-91
2021/12/27 02:45:07;;;;;;;3.27;1.53;;;-5.30;99.90;;;;;;5025484;28;20219;-91
2021/12/27 02:47:39;;;;;;;2.50;1.30;;;-5.20;99.90;;;;;;5042277;28;20217;-91
2021/12/27 02:50:12;;;;;;;2.33;1.20;;;-5.20;99.90;;;;;;5043812;28;20236;-91
2021/12/27 02:53:01;;;;;;;1.83;1.10;;;-5.20;99.90;;;;;;5051428;28;20233;-90
2021/12/27 02:55:35;;;;;;;2.50;1.33;;;-5.20;99.90;;;;;;5039270;28;20213;-90
2021/12/27 02:58:12;;;;;;;1.97;1.27;;;-5.20;99.90;;;;;;5052234;28;20220;-90
2021/12/27 03:00:53;;;;;;;1.53;1.20;;;-5.20;99.90;;;;;;5049782;28;20736;-91
2021/12/27 03:03:25;;;;;;;2.67;1.30;;;-5.20;99.90;;;;;;5046862;28;20238;-91
2021/12/27 03:05:56;;;;;;;3.07;1.33;;;-5.30;99.90;;;;;;5052300;28;20220;-89
2021/12/27 03:08:32;;;;;;;4.07;1.63;;;-5.30;99.90;;;;;;5051917;28;20205;-91
2021/12/27 03:11:06;;;;;;;2.50;1.23;;;-5.30;99.90;;;;;;5046346;28;20215;-90
2021/12/27 03:13:41;;;;;;;3.90;1.50;;;-5.30;99.90;;;;;;5037647;28;20272;-90
2021/12/27 03:16:21;;;;;;;2.40;1.30;;;-5.30;99.90;;;;;;5026572;28;20251;-91
2021/12/27 03:18:54;;;;;;;2.60;1.53;;;-5.30;99.90;;;;;;5035416;28;20229;-89
2021/12/27 03:21:26;;;;;;;3.13;1.90;;;-5.30;99.90;;;;;;5034235;28;20192;-91
2021/12/27 03:24:01;;;;;;;3.50;1.57;;;-5.30;99.90;;;;;;5033160;28;20207;-90
2021/12/27 03:26:33;;;;;;;3.57;1.77;;;-5.30;99.90;;;;;;5033010;28;20244;-90
2021/12/27 03:29:04;;;;;;;3.60;1.77;;;-5.40;99.90;;;;;;5028948;28;20216;-90
2021/12/27 03:31:37;;;;;;;4.10;1.77;;;-5.40;99.90;;;;;;5041085;28;20206;-91
2021/12/27 03:34:09;;;;;;;5.63;2.00;;;-5.30;99.90;;;;;;5039558;28;20240;-90
2021/12/27 03:36:42;;;;;;;3.40;1.70;;;-5.30;99.90;;;;;;5056594;28;20211;-91
2021/12/27 03:39:17;;;;;;;3.27;1.90;;;-5.40;99.90;;;;;;5056612;28;20229;-90
2021/12/27 03:41:49;;;;;;;2.50;1.67;;;-5.40;99.90;;;;;;5050817;28;20218;-90
2021/12/27 03:44:20;;;;;;;3.60;2.10;;;-5.30;99.90;;;;;;5048160;28;20270;-90
2021/12/27 03:46:51;;;;;;;3.23;1.87;;;-5.30;99.90;;;;;;5046265;28;20208;-89
2021/12/27 03:49:22;;;;;;;3.57;1.83;;;-5.30;99.90;;;;;;5052765;28;20218;-91
2021/12/27 03:51:55;;;;;;;3.30;1.80;;;-5.30;99.90;;;;;;5050676;28;20570;-90
2021/12/27 03:54:29;;;;;;;3.60;1.77;;;-5.30;99.90;;;;;;5053991;28;20240;-90
2021/12/27 03:57:15;;;;;;;4.30;1.20;;;-5.20;99.90;;;;;;5034982;28;20276;-90
2021/12/27 04:00:14;;;;;;;3.67;2.27;;;-5.30;99.90;;;;;;5034662;28;20208;-90
2021/12/27 04:02:44;;;;;;;6.00;2.30;;;-5.30;99.90;;;;;;5032279;28;20214;-89
2021/12/27 04:05:16;;;;;;;2.50;1.73;;;-5.30;99.90;;;;;;5034088;28;20189;-90
2021/12/27 04:07:56;;;;;;;3.30;2.40;;;-5.30;99.90;;;;;;5034758;28;20216;-90
2021/12/27 04:10:30;;;;;;;2.07;1.57;;;-5.40;99.90;;;;;;5035666;28;20213;-91
2021/12/27 04:23:45;;;;;;;3.30;1.83;;;-5.40;99.90;;;;;;5078106;28;20222;-90
2021/12/27 04:26:49;;;;;;;5.63;2.10;;;-5.40;99.90;;;;;;5077593;28;20211;-90
2021/12/27 04:29:21;;;;;;;4.07;1.90;;;-5.40;99.90;;;;;;5078701;28;20197;-88
2021/12/27 04:31:54;;;;;;;2.10;1.47;;;-5.40;99.90;;;;;;5079173;28;20211;-90
2021/12/27 04:34:29;;;;;;;2.37;1.70;;;-5.40;99.90;;;;;;5078852;28;20255;-90
2021/12/27 04:37:05;;;;;;;2.47;1.80;;;-5.40;99.90;;;;;;5076444;28;20207;-90
2021/12/27 04:39:43;;;;;;;2.97;1.77;;;-5.50;99.90;;;;;;5075111;28;20213;-89
2021/12/27 04:42:20;;;;;;;2.97;1.50;;;-5.40;99.90;;;;;;5075407;28;20220;-90
2021/12/27 04:44:51;;;;;;;6.67;1.70;;;-5.40;99.90;;;;;;5073078;28;20226;-88
2021/12/27 04:47:26;;;;;;;4.77;1.80;;;-5.50;99.90;;;;;;5073506;28;20218;-89
2021/12/27 04:49:59;;;;;;;5.17;1.80;;;-5.40;99.90;;;;;;5070101;28;20324;-89
2021/12/27 04:52:30;;;;;;;4.40;1.80;;;-5.40;99.90;;;;;;5067635;28;20250;-88
2021/12/27 04:55:10;;;;;;;3.73;1.87;;;-5.40;99.90;;;;;;5071694;28;20233;-90
2021/12/27 04:57:43;;;;;;;3.87;1.80;;;-5.40;99.90;;;;;;5076207;28;20219;-91
2021/12/27 05:00:16;;;;;;;2.77;1.53;;;-5.40;99.90;;;;;;5075901;28;20208;-90
2021/12/27 05:02:48;;;;;;;3.33;1.33;;;-5.50;99.90;;;;;;5076201;28;20204;-89
2021/12/27 05:05:19;;;;;;;6.23;1.70;;;-5.50;99.90;;;;;;5073547;28;20218;-89
2021/12/27 05:07:51;;;;;;;4.60;1.50;;;-5.40;99.90;;;;;;5076814;28;20208;-89
2021/12/27 05:10:23;;;;;;;1.40;1.03;;;-5.40;99.90;;;;;;5073801;28;20215;-89
2021/12/27 05:12:59;;;;;;;2.40;1.50;;;-5.50;99.90;;;;;;5076007;28;20211;-90
2021/12/27 05:15:30;;;;;;;2.53;1.40;;;-5.50;99.90;;;;;;5078579;28;20208;-89
2021/12/27 05:18:05;;;;;;;2.70;1.43;;;-5.40;99.90;;;;;;5077333;28;20196;-89
2021/12/27 05:20:38;;;;;;;2.20;1.30;;;-5.50;99.90;;;;;;5074928;28;20212;-90
2021/12/27 05:23:10;;;;;;;2.33;1.47;;;-5.50;99.90;;;;;;5072716;28;20237;-88
2021/12/27 05:25:41;;;;;;;3.23;1.53;;;-5.50;99.90;;;;;;5073413;28;20203;-90
2021/12/27 05:28:15;;;;;;;1.87;1.57;;;-5.40;99.90;;;;;;5074477;28;20317;-91
2021/12/27 05:30:48;;;;;;;2.83;1.60;;;-5.40;99.90;;;;;;5077570;28;20214;-88
2021/12/27 05:33:23;;;;;;;3.87;1.57;;;-5.40;99.90;;;;;;5076462;28;20775;-90
2021/12/27 05:35:58;;;;;;;3.07;2.30;;;-5.40;99.90;;;;;;5078976;28;20257;-90
2021/12/27 05:38:30;;;;;;;3.40;1.50;;;-5.40;99.90;;;;;;5443151;22;20265;-91
2021/12/27 05:41:07;;;;;;;2.80;1.10;;;-5.50;99.90;;;;;;5075810;28;20264;-91
2021/12/27 05:43:44;;;;;;;2.83;1.57;;;-5.50;99.90;;;;;;5057916;28;20207;-90
2021/12/27 05:46:18;;;;;;;5.13;1.27;;;-5.40;99.90;;;;;;5074135;28;20208;-91
2021/12/27 05:48:52;;;;;;;2.53;1.30;;;-5.50;99.90;;;;;;5058531;28;20229;-90
2021/12/27 05:51:24;;;;;;;2.33;1.17;;;-5.40;99.90;;;;;;5076591;28;20263;-90
2021/12/27 05:54:00;;;;;;;2.97;1.00;;;-5.40;99.90;;;;;;5078269;28;20278;-91
2021/12/27 06:01:58;;;;;;;2.40;1.10;;;-5.60;99.90;;;;;;5849934;22;20229;-89
2021/12/27 06:04:31;;;;;;;3.90;1.40;;;-5.60;99.90;;;;;;5076527;28;20214;-91
2021/12/27 06:07:07;;;;;;;2.40;1.03;;;-5.60;99.90;;;;;;5069962;28;20198;-89
2021/12/27 06:09:40;;;;;;;2.67;1.30;;;-5.60;99.90;;;;;;5090404;28;20191;-89
2021/12/27 06:12:13;;;;;;;3.40;1.57;;;-5.70;99.90;;;;;;5064692;28;20253;-90
2021/12/27 06:14:56;;;;;;;3.50;0.90;;;-5.70;99.90;;;;;;5097129;28;20229;-90
2021/12/27 06:17:33;;;;;;;3.37;1.67;;;-5.70;99.90;;;;;;5097150;28;20193;-89
2021/12/27 06:20:08;;;;;;;2.60;1.20;;;-5.70;99.90;;;;;;5098141;28;20261;-86
2021/12/27 06:22:46;;;;;;;1.77;1.20;;;-5.70;99.90;;;;;;5097648;28;20201;-90
2021/12/27 06:25:27;;;;;;;2.90;1.47;;;-5.70;99.90;;;;;;5080706;28;20211;-90
2021/12/27 06:28:01;;;;;;;2.20;1.10;;;-5.70;99.90;;;;;;5081586;28;20232;-90
2021/12/27 06:52:28;;;;;;;2.83;1.40;;;-5.80;99.90;;;;;;5640995;22;20232;-90
2021/12/27 06:55:00;;;;;;;3.67;1.40;;;-5.80;99.90;;;;;;5090882;28;20238;-91
2021/12/27 06:57:33;;;;;;;1.43;0.97;;;-5.70;99.90;;;;;;5088082;28;20209;-89
2021/12/27 07:02:58;;;;;;;2.13;1.13;;;-5.80;99.90;;;;;;5087755;28;20210;-90
2021/12/27 07:05:30;;;;;;;1.97;1.30;;;-5.90;99.90;;;;;;5085229;28;20210;-89
2021/12/27 07:08:04;;;;;;;2.13;1.80;;;-5.90;99.90;;;;;;5090037;28;20215;-89
2021/12/27 07:10:37;;;;;;;2.37;1.20;;;-5.80;99.90;;;;;;5095534;28;20205;-91
2021/12/27 07:13:09;;;;;;;3.13;1.10;;;-5.90;99.90;;;;;;5089608;28;20208;-90
2021/12/27 07:50:33;;;;;;;3.80;1.40;;;-6.10;99.90;;;;;;5037696;28;20227;-90
2021/12/27 08:03:53;;;;;;;2.77;0.97;;;-6.20;99.90;;;;;;5651199;22;20316;-90
2021/12/27 08:06:34;;;;;;;2.47;1.30;;;-6.20;99.90;;;;;;5120176;28;20212;-91
2021/12/27 08:09:06;;;;;;;5.40;1.97;;;-6.20;99.90;;;;;;5121044;28;20207;-90
2021/12/27 08:11:38;;;;;;;2.40;1.27;;;-6.20;99.90;;;;;;5121108;28;20190;-91
2021/12/27 08:46:29;;;;;;;4.97;1.00;;;-6.20;99.90;;;;;;4999842;28;20208;-89
2021/12/27 08:49:01;;;;;;;3.37;1.10;;;-6.20;99.90;;;;;;5000331;28;20202;-89
2021/12/27 08:51:32;;;;;;;4.90;1.50;;;-6.30;99.90;;;;;;5053887;22;20228;-88
2021/12/27 08:54:04;;;;;;;2.57;0.90;;;-6.20;99.90;;;;;;5119726;28;20245;-89
2021/12/27 09:02:01;;;;;;;1.13;0.80;;;-6.20;99.90;;;;;;5057910;28;20461;-89
2021/12/27 09:04:34;;;;;;;1.83;1.10;;;-6.30;99.90;;;;;;5059847;28;20287;-90
2021/12/27 10:17:12;;;;;;;3.13;0.90;;;-6.60;99.90;;;;;;5037281;28;20334;-90
2021/12/27 10:19:44;;;;;;;1.70;0.90;;;-6.60;99.90;;;;;;5038225;28;20257;-88
2021/12/27 10:22:18;;;;;;;4.87;1.23;;;-6.50;99.90;;;;;;5037013;28;20686;-90
2021/12/27 10:24:52;;;;;;;2.87;1.00;;;-6.50;99.90;;;;;;5034916;28;20557;-91
2021/12/27 10:27:33;;;;;;;3.00;0.93;;;-6.40;99.90;;;;;;5015966;28;20567;-89
2021/12/27 10:30:18;;;;;;;2.40;1.10;;;-6.40;99.90;;;;;;5033247;28;20237;-90
2021/12/27 10:33:09;;;;;;;2.93;1.17;;;-6.40;99.90;;;;;;5034801;28;20207;-90
2021/12/27 10:35:44;;;;;;;2.27;1.07;;;-6.50;99.90;;;;;;5034226;28;20250;-90
2021/12/27 10:38:20;;;;;;;4.63;1.27;;;-6.30;99.90;;;;;;5034386;28;20194;-90
2021/12/27 10:40:57;;;;;;;4.80;1.20;;;-6.20;99.90;;;;;;5020778;28;20197;-90
2021/12/27 10:43:38;;;;;;;3.77;1.30;;;-6.10;99.90;;;;;;5037327;28;20227;-87
2021/12/27 10:46:25;;;;;;;3.87;1.27;;;-6.10;99.90;;;;;;5004107;28;20221;-91
2021/12/27 10:49:00;;;;;;;1.67;1.10;;;-6.10;99.90;;;;;;5032155;28;20204;-90
2021/12/27 10:51:36;;;;;;;2.90;1.10;;;-6.00;99.90;;;;;;5033165;28;20200;-90
2021/12/27 10:54:31;;;;;;;2.03;1.07;;;-6.00;99.90;;;;;;5037036;28;20235;-91
2021/12/27 10:57:05;;;;;;;2.57;1.30;;;-5.90;99.90;;;;;;5037825;28;20215;-91
2021/12/27 10:59:37;;;;;;;5.03;1.20;;;-6.00;99.90;;;;;;5037731;28;20224;-90
2021/12/27 11:02:14;;;;;;;2.07;1.03;;;-5.90;99.90;;;;;;5037847;28;20203;-90
2021/12/27 11:04:48;;;;;;;3.53;1.40;;;-5.90;99.90;;;;;;5033749;28;20204;-90
2021/12/27 11:07:19;;;;;;;3.23;1.03;;;-6.00;99.90;;;;;;5032303;28;20279;-90
2021/12/27 11:09:52;;;;;;;6.73;1.10;;;-6.00;99.90;;;;;;5031449;28;20234;-89
2021/12/27 11:12:25;;;;;;;4.67;1.57;;;-6.10;99.90;;;;;;5032651;28;20317;-90
2021/12/27 11:14:56;;;;;;;2.20;1.20;;;-6.10;99.90;;;;;;5032187;28;20223;-90
2021/12/27 11:17:30;;;;;;;3.20;1.60;;;-6.20;99.90;;;;;;5016766;28;20201;-90
2021/12/27 11:20:03;;;;;;;3.10;1.20;;;-6.30;99.90;;;;;;5035530;28;20199;-88
2021/12/27 11:22:40;;;;;;;2.47;1.10;;;-6.40;99.90;;;;;;5039853;28;20253;-90
2021/12/27 14:03:50;;;;;;;2.17;1.20;;;-8.40;99.90;;;;;;6107152;23;20300;31
2021/12/27 14:36:04;;;;;;;2.03;1.07;;;-7.50;99.90;;;;;;5575143;23;20305;-88
2021/12/27 16:51:02;;;;;;;3.80;0.97;;;-9.30;99.90;;;;;;4960687;29;20208;-90
2021/12/27 18:01:15;;;;;;;4.70;1.30;;;-7.80;99.90;;;;;;4978230;28;20235;-89
2021/12/27 18:06:30;;;;;;;4.30;1.60;;;-7.60;99.90;;;;;;5668107;23;20232;-89
2021/12/27 18:09:02;;;;;;;2.17;1.33;;;-7.60;99.90;;;;;;5019072;28;20194;-91
2021/12/27 18:35:55;;;;;;;2.23;1.10;;;-7.10;99.90;;;;;;4997594;28;20221;-92
2021/12/27 18:38:28;;;;;;;3.77;1.50;;;-7.00;99.90;;;;;;4998926;28;20197;-91
2021/12/27 18:41:00;;;;;;;5.00;1.60;;;-7.00;99.90;;;;;;4998872;28;20217;-90
2021/12/27 18:43:31;;;;;;;1.90;1.40;;;-6.90;99.90;;;;;;4998163;28;20225;-92
2021/12/27 18:46:02;;;;;;;2.20;1.20;;;-7.00;99.90;;;;;;4998571;28;20265;-88
2021/12/27 18:48:35;;;;;;;4.60;1.70;;;-6.90;99.90;;;;;;4999320;28;20190;-88
2021/12/27 18:51:09;;;;;;;4.23;1.80;;;-6.80;99.90;;;;;;4998809;28;20213;-91
2021/12/27 18:53:41;;;;;;;4.63;1.70;;;-6.80;99.90;;;;;;4998941;28;20212;-92
2021/12/27 18:56:17;;;;;;;3.03;1.40;;;-6.80;99.90;;;;;;4998246;28;20218;-91
2021/12/27 18:58:49;;;;;;;3.60;1.70;;;-6.80;99.90;;;;;;4996217;28;20201;-90
2021/12/27 19:01:25;;;;;;;3.70;1.70;;;-6.90;99.90;;;;;;4997730;28;20193;-90
2021/12/27 19:03:57;;;;;;;5.10;1.93;;;-6.80;99.90;;;;;;4998890;28;20208;-92
2021/12/27 19:06:30;;;;;;;2.50;1.57;;;-6.80;99.90;;;;;;4998510;28;20271;-89
2021/12/27 19:09:02;;;;;;;4.13;1.40;;;-6.80;99.90;;;;;;4998695;28;20205;-90
2021/12/27 19:11:33;;;;;;;3.50;1.20;;;-6.80;99.90;;;;;;4998420;28;20213;-90
2021/12/27 19:14:04;;;;;;;3.57;1.77;;;-6.80;99.90;;;;;;4997754;28;20252;-89
2021/12/27 19:19:12;;;;;;;7.17;1.80;;;-6.70;99.90;;;;;;5840447;23;20262;-89
2021/12/27 19:21:51;;;;;;;4.10;1.47;;;-6.70;99.90;;;;;;5017956;28;20213;-90
2021/12/27 19:29:55;;;;;;;2.23;1.20;;;-6.40;99.90;;;;;;5821054;23;20292;-90
2021/12/27 19:32:28;;;;;;;6.30;1.37;;;-6.40;99.90;;;;;;5015413;28;20329;-89
2021/12/27 19:34:59;;;;;;;5.00;1.67;;;-6.40;99.90;;;;;;5007446;28;20233;-90
2021/12/27 19:37:53;;;;;;;6.87;1.80;;;-6.30;99.90;;;;;;5003492;28;20230;-91
2021/12/27 19:40:27;;;;;;;4.90;2.17;;;-6.30;99.90;;;;;;5007980;28;20247;-91
2021/12/27 19:42:57;;;;;;;2.93;1.50;;;-6.20;99.90;;;;;;5013452;28;20211;-91
2021/12/27 19:45:29;;;;;;;4.37;1.47;;;-6.10;99.90;;;;;;5007516;28;20202;-90
2021/12/27 19:48:01;;;;;;;2.93;1.50;;;-6.10;99.90;;;;;;5005917;28;20248;-89
2021/12/27 19:50:33;;;;;;;3.10;1.20;;;-6.00;99.90;;;;;;4993591;28;20210;-89
2021/12/27 19:53:06;;;;;;;3.80;1.67;;;-5.90;99.90;;;;;;5014333;28;20236;-90
2021/12/27 19:55:38;;;;;;;3.50;1.60;;;-5.90;99.90;;;;;;5011888;28;20208;-89
2021/12/27 19:58:10;;;;;;;3.00;1.43;;;-5.90;99.90;;;;;;5014508;28;20243;-90
2021/12/27 20:00:43;;;;;;;5.80;1.80;;;-5.80;99.90;;;;;;5016335;28;20201;-90
2021/12/27 20:03:15;;;;;;;3.57;1.60;;;-5.80;99.90;;;;;;5013865;28;20220;-91
2021/12/27 20:05:48;;;;;;;3.53;1.53;;;-5.90;99.90;;;;;;5016683;28;20599;-91
2021/12/27 20:08:22;;;;;;;5.23;1.77;;;-5.80;99.90;;;;;;5014909;28;20283;-91
2021/12/27 20:10:53;;;;;;;5.13;1.93;;;-5.90;99.90;;;;;;5016566;28;20238;-90
2021/12/27 20:13:31;;;;;;;6.93;1.90;;;-5.80;99.90;;;;;;5020631;28;20207;-88
2021/12/27 20:26:45;;;;;;;3.43;1.63;;;-6.10;99.90;;;;;;4977251;28;20277;-89
2021/12/27 20:29:18;;;;;;;5.63;1.70;;;-6.00;99.90;;;;;;4979541;28;20208;-91
2021/12/27 20:31:54;;;;;;;2.77;1.60;;;-5.90;99.90;;;;;;4994018;28;20226;-91
2021/12/27 20:34:31;;;;;;;2.83;1.57;;;-5.80;99.90;;;;;;4997555;28;20225;-91
2021/12/27 20:37:06;;;;;;;2.30;1.47;;;-5.80;99.90;;;;;;4996892;28;20273;-92
2021/12/27 20:39:39;;;;;;;2.67;1.63;;;-5.60;99.90;;;;;;4983868;28;20235;-91
2021/12/27 20:42:35;;;;;;;4.17;0.93;;;-5.50;99.90;;;;;;4979357;28;20679;-90
2021/12/27 20:45:10;;;;;;;4.20;1.60;;;-5.40;99.90;;;;;;4980546;28;20192;-89
2021/12/27 20:50:17;;;;;;;3.83;1.60;;;-5.40;99.90;;;;;;4980678;28;20211;-90
2021/12/27 20:52:52;;;;;;;2.90;1.60;;;-5.40;99.90;;;;;;4980644;28;20217;-90
2021/12/27 20:55:27;;;;;;;3.07;1.63;;;-5.30;99.90;;;;;;4978550;28;20241;-90
2021/12/27 20:58:02;;;;;;;3.03;1.17;;;-5.30;99.90;;;;;;4979948;28;20247;-90
2021/12/27 21:00:36;;;;;;;3.83;1.57;;;-5.40;99.90;;;;;;4977564;28;20215;-91
2021/12/27 21:03:08;;;;;;;2.90;1.50;;;-5.30;99.90;;;;;;4976627;28;20270;-91
2021/12/27 21:05:40;;;;;;;2.83;1.40;;;-5.10;99.90;;;;;;4979505;28;20221;-88
2021/12/27 21:08:13;;;;;;;2.10;1.40;;;-5.10;99.90;;;;;;4979044;28;20234;-90
2021/12/27 21:10:47;;;;;;;3.50;1.73;;;-5.00;99.90;;;;;;4975393;28;20225;-91
2021/12/27 21:13:22;;;;;;;4.47;1.60;;;-4.70;99.90;;;;;;4978486;28;20211;-90
2021/12/27 21:15:53;;;;;;;2.67;1.30;;;-4.70;99.90;;;;;;4971935;28;20241;-87
2021/12/27 21:18:31;;;;;;;2.87;1.10;;;-4.70;99.90;;;;;;4970767;28;20243;-90
2021/12/27 21:21:04;;;;;;;4.17;1.30;;;-4.60;99.90;;;;;;4954417;29;20206;-91
2021/12/27 21:23:36;;;;;;;3.53;1.63;;;-4.50;99.90;;;;;;4964009;28;20219;-91
2021/12/27 21:26:07;;;;;;;2.27;1.57;;;-4.50;99.90;;;;;;4974090;28;20247;-91
2021/12/27 21:28:40;;;;;;;3.13;1.30;;;-4.50;99.90;;;;;;4966554;28;20210;-91
2021/12/27 21:31:11;;;;;;;2.20;1.20;;;-4.40;99.90;;;;;;4969867;28;20235;-91
2021/12/27 21:33:45;;;;;;;2.77;1.40;;;-4.20;99.90;;;;;;4965496;28;20233;-90
2021/12/27 21:36:19;;;;;;;1.83;1.43;;;-4.20;99.90;;;;;;4967522;28;20207;-91
2021/12/27 21:38:52;;;;;;;4.47;1.40;;;-4.40;99.90;;;;;;4968187;28;20270;-91
2021/12/27 21:41:24;;;;;;;1.47;1.10;;;-4.50;99.90;;;;;;4966094;28;20226;-91
2021/12/27 21:44:06;;;;;;;3.50;1.30;;;-4.50;99.90;;;;;;4961972;29;20640;-91
2021/12/27 21:46:40;;;;;;;3.37;1.10;;;-4.40;99.90;;;;;;4964019;29;20200;-92
2021/12/27 21:49:12;;;;;;;2.97;1.37;;;-4.40;99.90;;;;;;4970827;28;20218;-87
2021/12/27 21:51:45;;;;;;;3.10;1.40;;;-4.50;99.90;;;;;;4974209;28;20238;-91
2021/12/27 21:56:52;;;;;;;1.70;1.10;;;-5.10;99.90;;;;;;5886542;22;20254;-90
2021/12/27 21:59:26;;;;;;;3.80;1.20;;;-5.10;99.90;;;;;;4999367;28;20199;-92
2021/12/27 22:01:57;;;;;;;4.17;1.50;;;-5.00;99.90;;;;;;4997064;28;20238;-89
2021/12/27 22:04:29;;;;;;;1.53;1.00;;;-4.80;99.90;;;;;;4995296;28;20221;-90
2021/12/27 22:07:01;;;;;;;2.53;1.10;;;-4.80;99.90;;;;;;4984271;28;20211;-90
2021/12/27 22:09:31;;;;;;;4.63;1.80;;;-4.60;99.90;;;;;;4981525;28;20248;-91
2021/12/27 22:12:03;;;;;;;2.10;1.00;;;-4.40;99.90;;;;;;4990053;28;20219;-90
2021/12/27 22:14:42;;;;;;;2.77;1.33;;;-4.50;99.90;;;;;;5002877;28;20910;-91
2021/12/27 22:17:15;;;;;;;2.50;1.23;;;-4.30;99.90;;;;;;5000404;28;20214;-90
2021/12/27 22:19:46;;;;;;;3.50;1.33;;;-4.30;99.90;;;;;;5003867;28;20211;-90
2021/12/27 22:22:19;;;;;;;2.97;1.13;;;-4.60;99.90;;;;;;5008267;28;20570;-89
2021/12/27 22:24:50;;;;;;;2.17;1.30;;;-4.80;99.90;;;;;;5008309;28;20214;-91
2021/12/27 22:27:23;;;;;;;2.53;1.50;;;-4.70;99.90;;;;;;4999221;28;20214;-93
2021/12/27 22:29:56;;;;;;;2.13;1.40;;;-4.50;99.90;;;;;;5002761;28;20249;-93
2021/12/27 22:32:28;;;;;;;2.57;1.40;;;-4.30;99.90;;;;;;5000926;28;20237;-92
2021/12/27 22:34:58;;;;;;;2.73;1.40;;;-4.20;99.90;;;;;;5006121;28;20206;-91
2021/12/27 22:37:30;;;;;;;2.93;1.57;;;-4.10;99.90;;;;;;5014711;28;20202;-91
2021/12/27 22:40:01;;;;;;;1.83;1.20;;;-4.10;99.90;;;;;;4997708;28;20254;-92
2021/12/27 22:42:35;;;;;;;2.53;1.43;;;-4.20;99.90;;;;;;4994590;28;20195;-91
2021/12/27 22:45:14;;;;;;;1.93;1.23;;;-4.20;99.90;;;;;;4991533;28;20190;-91
2021/12/27 22:47:47;;;;;;;3.73;1.50;;;-4.30;99.90;;;;;;4984702;28;20242;-92
2021/12/27 22:50:21;;;;;;;3.43;1.50;;;-4.40;99.90;;;;;;4979370;28;20261;-93
2021/12/27 22:52:53;;;;;;;5.13;1.63;;;-4.50;99.90;;;;;;4979140;28;20234;-92
2021/12/27 22:55:26;;;;;;;4.57;1.73;;;-4.60;99.90;;;;;;4978001;28;20213;-92
2021/12/27 22:57:58;;;;;;;3.10;1.80;;;-4.70;99.90;;;;;;4976199;28;20238;-91
2021/12/27 23:00:38;;;;;;;2.27;1.43;;;-4.70;99.90;;;;;;4976825;28;20633;-91
2021/12/27 23:03:11;;;;;;;4.37;2.20;;;-4.70;99.90;;;;;;4978959;28;20210;-93
2021/12/27 23:05:42;;;;;;;2.30;1.60;;;-4.90;99.90;;;;;;4978338;28;20702;-91
2021/12/27 23:08:15;;;;;;;3.17;1.70;;;-5.10;99.90;;;;;;4975350;28;20747;-91
2021/12/27 23:10:49;;;;;;;3.07;2.03;;;-5.20;99.90;;;;;;4978066;28;20671;-91
2021/12/27 23:13:22;;;;;;;2.67;1.67;;;-5.20;99.90;;;;;;4985923;28;20206;-92
2021/12/27 23:15:55;;;;;;;3.53;2.07;;;-5.20;99.90;;;;;;4997354;28;20301;-92
2021/12/27 23:18:26;;;;;;;3.03;1.70;;;-5.20;99.90;;;;;;5003311;28;20229;-90
2021/12/27 23:21:00;;;;;;;5.20;2.30;;;-5.10;99.90;;;;;;5007504;28;20655;-91
2021/12/27 23:23:32;;;;;;;4.03;2.00;;;-5.10;99.90;;;;;;5004820;28;20206;-91
2021/12/27 23:26:03;;;;;;;7.17;2.50;;;-5.10;99.90;;;;;;5004477;28;20305;-91
2021/12/27 23:28:35;;;;;;;3.03;2.23;;;-5.10;99.90;;;;;;5004047;28;20267;-91
2021/12/27 23:31:10;;;;;;;4.37;2.80;;;-5.00;99.90;;;;;;4998328;28;20212;-91
2021/12/27 23:33:46;;;;;;;3.63;2.60;;;-5.20;99.90;;;;;;5004082;28;20274;-91
2021/12/27 23:36:19;;;;;;;3.27;2.10;;;-5.20;99.90;;;;;;4998085;28;20232;-91
2021/12/27 23:38:51;;;;;;;4.30;2.33;;;-5.00;99.90;;;;;;4991520;28;20254;-91
2021/12/27 23:41:23;;;;;;;6.13;2.40;;;-5.00;99.90;;;;;;4985012;28;20222;-91
2021/12/27 23:43:55;;;;;;;4.53;2.67;;;-5.00;99.90;;;;;;4983294;28;20245;-91
2021/12/27 23:46:30;;;;;;;4.90;2.77;;;-5.00;99.90;;;;;;4991089;28;20207;-91
2021/12/27 23:49:04;;;;;;;5.20;2.50;;;-5.00;99.90;;;;;;4994637;28;20242;-90
2021/12/27 23:51:37;;;;;;;5.43;2.70;;;-4.90;99.90;;;;;;4989643;28;20292;-91
2021/12/27 23:54:11;;;;;;;7.83;2.67;;;-5.00;99.90;;;;;;4985670;28;20321;-91
2021/12/27 23:56:43;;;;;;;6.70;3.73;;;-5.10;99.90;;;;;;4983123;28;20249;-90